createdAt,value
2019-01-02T00:01:18.267Z,4.31
2019-01-02T00:03:46.779Z,4.28
2019-01-02T00:06:15.538Z,4.01
2019-01-02T00:08:44.171Z,4.09
2019-01-02T00:11:12.746Z,4.10
2019-01-02T00:13:42.853Z,4.09
2019-01-02T00:16:11.283Z,4.10
2019-01-02T00:18:41.589Z,4.13
2019-01-02T00:21:10.037Z,4.08
2019-01-02T00:23:38.510Z,4.00
2019-01-02T00:26:07.032Z,4.02
2019-01-02T00:28:35.501Z,4.02
2019-01-02T00:31:05.757Z,4.00
2019-01-02T00:33:34.779Z,4.01
2019-01-02T00:36:05.207Z,4.03
2019-01-02T00:38:33.722Z,3.97
2019-01-02T00:41:02.381Z,4.03
2019-01-02T00:43:30.856Z,4.03
2019-01-02T00:46:01.147Z,4.01
2019-01-02T00:48:29.579Z,4.05
2019-01-02T00:51:00.014Z,4.00
2019-01-02T00:53:28.469Z,4.06
2019-01-02T00:55:58.680Z,4.03
2019-01-02T00:58:27.129Z,3.97
2019-01-02T01:00:57.715Z,3.99
2019-01-02T01:03:26.241Z,4.01
2019-01-02T01:05:56.532Z,4.00
2019-01-02T01:08:25.311Z,3.96
2019-01-02T01:10:55.662Z,4.00
2019-01-02T01:13:24.135Z,4.00
2019-01-02T01:15:54.331Z,3.98
2019-01-02T01:18:23.034Z,3.96
2019-01-02T01:20:53.302Z,3.95
2019-01-02T01:23:21.783Z,3.95
2019-01-02T01:25:50.291Z,3.87
2019-01-02T01:28:18.822Z,3.85
2019-01-02T01:30:47.362Z,3.84
2019-01-02T01:33:16.496Z,3.90
2019-01-02T01:35:44.979Z,3.86
2019-01-02T01:38:13.415Z,3.87
2019-01-02T01:40:43.609Z,3.88
2019-01-02T01:43:12.172Z,3.87
2019-01-02T01:45:42.524Z,3.92
2019-01-02T01:48:11.059Z,3.92
2019-01-02T01:50:39.577Z,3.93
2019-01-02T01:53:09.768Z,3.92
2019-01-02T01:55:38.346Z,3.83
2019-01-02T01:58:06.874Z,3.87
2019-01-02T02:00:35.343Z,3.86
2019-01-02T02:03:03.819Z,3.89
2019-01-02T02:05:34.115Z,3.80
2019-01-02T02:08:02.690Z,3.84
2019-01-02T02:10:31.275Z,3.86
2019-01-02T02:12:59.932Z,3.88
2019-01-02T02:15:28.467Z,3.94
2019-01-02T02:17:58.754Z,3.90
2019-01-02T02:20:27.301Z,3.89
2019-01-02T02:22:55.830Z,3.74
2019-01-02T02:25:26.016Z,3.77
2019-01-02T02:27:54.538Z,3.81
2019-01-02T02:30:24.731Z,3.76
2019-01-02T02:32:53.248Z,3.76
2019-01-02T02:35:21.825Z,3.85
2019-01-02T02:37:52.013Z,3.82
2019-01-02T02:40:20.553Z,3.75
2019-01-02T02:42:49.099Z,3.80
2019-01-02T02:45:17.969Z,3.79
2019-01-02T02:47:46.836Z,3.78
2019-01-02T02:50:17.048Z,3.82
2019-01-02T02:52:47.358Z,3.79
2019-01-02T02:55:56.093Z,3.78
2019-01-02T02:58:26.472Z,3.85
2019-01-02T03:00:56.750Z,3.82
2019-01-02T03:03:26.967Z,3.85
2019-01-02T03:05:55.670Z,3.89
2019-01-02T03:08:24.244Z,3.89
2019-01-02T03:10:54.409Z,3.94
2019-01-02T03:13:24.695Z,3.91
2019-01-02T03:15:54.896Z,3.91
2019-01-02T03:18:23.910Z,3.90
2019-01-02T03:20:52.708Z,3.94
2019-01-02T03:23:21.155Z,3.94
2019-01-02T03:25:49.719Z,3.92
2019-01-02T03:28:19.984Z,3.92
2019-01-02T03:30:50.251Z,3.84
2019-01-02T03:33:20.515Z,3.92
2019-01-02T03:35:49.327Z,3.89
2019-01-02T03:38:17.781Z,3.92
2019-01-02T03:40:46.255Z,3.95
2019-01-02T03:43:14.897Z,3.95
2019-01-02T03:45:43.409Z,4.04
2019-01-02T03:48:11.916Z,4.10
2019-01-02T03:50:40.497Z,4.10
2019-01-02T03:53:09.012Z,4.15
2019-01-02T03:55:37.622Z,4.06
2019-01-02T03:58:06.104Z,3.95
2019-01-02T04:00:34.646Z,3.88
2019-01-02T04:03:03.143Z,3.77
2019-01-02T04:05:31.589Z,3.75
2019-01-02T04:08:40.079Z,3.74
2019-01-02T04:11:08.580Z,3.69
2019-01-02T04:13:37.103Z,3.66
2019-01-02T04:16:05.564Z,3.62
2019-01-02T04:18:34.044Z,3.57
2019-01-02T04:21:02.595Z,3.57
2019-01-02T04:23:31.135Z,3.55
2019-01-02T04:25:59.703Z,3.56
2019-01-02T04:28:28.232Z,3.52
2019-01-02T04:30:56.775Z,3.47
2019-01-02T04:33:25.241Z,3.52
2019-01-02T04:35:53.680Z,3.52
2019-01-02T04:38:22.045Z,3.48
2019-01-02T04:40:50.839Z,3.51
2019-01-02T04:43:19.531Z,3.56
2019-01-02T04:45:48.101Z,3.56
2019-01-02T04:48:16.708Z,3.59
2019-01-02T04:50:45.210Z,3.63
2019-01-02T04:53:13.733Z,3.69
2019-01-02T04:55:42.310Z,3.72
2019-01-02T04:58:10.802Z,3.75
2019-01-02T05:00:39.512Z,3.85
2019-01-02T05:03:07.978Z,3.86
2019-01-02T05:05:36.462Z,3.92
2019-01-02T05:08:04.993Z,3.89
2019-01-02T05:10:33.541Z,3.89
2019-01-02T05:13:02.430Z,3.95
2019-01-02T05:15:30.943Z,3.94
2019-01-02T05:17:59.389Z,3.95
2019-01-02T05:20:27.872Z,3.96
2019-01-02T05:22:56.451Z,3.98
2019-01-02T05:25:24.884Z,3.97
2019-01-02T05:27:53.467Z,3.97
2019-01-02T05:30:22.222Z,3.93
2019-01-02T05:32:50.685Z,3.94
2019-01-02T05:35:19.250Z,3.93
2019-01-02T05:37:47.719Z,3.95
2019-01-02T05:40:56.210Z,3.90
2019-01-02T05:43:25.084Z,3.84
2019-01-02T05:45:53.533Z,3.84
2019-01-02T05:48:22.058Z,3.80
2019-01-02T05:50:50.945Z,3.88
2019-01-02T05:53:19.404Z,3.87
2019-01-02T05:55:47.909Z,3.85
2019-01-02T05:58:16.405Z,3.93
2019-01-02T06:00:44.834Z,3.88
2019-01-02T06:03:13.290Z,3.94
2019-01-02T06:05:41.832Z,3.89
2019-01-02T06:08:10.293Z,3.90
2019-01-02T06:10:38.849Z,3.89
2019-01-02T06:13:07.400Z,3.92
2019-01-02T06:15:35.948Z,3.86
2019-01-02T06:18:04.428Z,3.83
2019-01-02T06:20:32.837Z,3.81
2019-01-02T06:23:01.392Z,3.88
2019-01-02T06:25:29.861Z,3.89
2019-01-02T06:27:58.366Z,3.89
2019-01-02T06:30:26.831Z,3.87
2019-01-02T06:32:55.652Z,3.86
2019-01-02T06:35:24.243Z,3.85
2019-01-02T06:37:53.133Z,3.87
2019-01-02T06:40:21.703Z,3.85
2019-01-02T06:42:50.334Z,3.97
2019-01-02T06:45:18.926Z,3.94
2019-01-02T06:47:47.467Z,3.96
2019-01-02T06:50:56.021Z,3.93
2019-01-02T06:53:24.635Z,4.00
2019-01-02T06:55:53.142Z,4.01
2019-01-02T06:58:21.723Z,3.99
2019-01-02T07:01:30.192Z,4.09
2019-01-02T07:03:58.792Z,4.09
2019-01-02T07:06:27.326Z,4.11
2019-01-02T07:08:56.126Z,4.13
2019-01-02T07:11:24.556Z,4.12
2019-01-02T07:13:53.391Z,4.20
2019-01-02T07:16:21.844Z,4.23
2019-01-02T07:18:50.345Z,4.30
2019-01-02T07:21:18.814Z,4.28
2019-01-02T07:23:47.385Z,4.23
2019-01-02T07:26:15.973Z,4.31
2019-01-02T07:28:44.415Z,4.33
2019-01-02T07:31:13.009Z,4.31
2019-01-02T07:34:21.465Z,4.33
2019-01-02T07:37:28.707Z,4.23
2019-01-02T07:40:37.214Z,4.19
2019-01-02T07:43:44.310Z,4.21
2019-01-02T07:46:51.510Z,4.22
2019-01-02T07:49:58.694Z,4.25
2019-01-02T07:53:07.178Z,4.24
2019-01-02T07:56:15.704Z,4.27
2019-01-02T07:59:24.188Z,4.29
2019-01-02T08:02:32.639Z,4.29
2019-01-02T08:05:39.856Z,4.32
2019-01-02T08:08:47.067Z,4.24
2019-01-02T08:11:55.513Z,4.24
2019-01-02T08:15:03.735Z,4.19
2019-01-02T08:18:12.244Z,4.23
2019-01-02T08:21:19.722Z,4.18
2019-01-02T08:24:28.383Z,4.19
2019-01-02T08:27:36.813Z,4.19
2019-01-02T08:30:45.381Z,4.06
2019-01-02T08:33:53.798Z,3.98
2019-01-02T08:37:02.279Z,3.92
2019-01-02T08:40:11.046Z,4.05
2019-01-02T08:43:19.582Z,4.04
2019-01-02T08:46:26.804Z,4.02
2019-01-02T08:49:35.313Z,3.99
2019-01-02T08:52:42.524Z,4.03
2019-01-02T08:55:50.983Z,4.07
2019-01-02T08:58:59.508Z,4.18
2019-01-02T09:02:06.730Z,4.14
2019-01-02T09:05:13.888Z,4.28
2019-01-02T09:08:22.724Z,4.28
2019-01-02T09:11:31.232Z,4.22
2019-01-02T09:23:41.347Z,3.57
2019-01-02T09:26:48.576Z,3.19
2019-01-02T09:29:57.314Z,2.85
2019-01-02T09:33:04.461Z,2.66
2019-01-02T09:36:13.220Z,2.66
2019-01-02T09:39:20.451Z,2.69
2019-01-02T09:42:28.920Z,2.78
2019-01-02T09:45:37.423Z,2.82
2019-01-02T09:48:45.881Z,2.87
2019-01-02T09:51:53.370Z,2.94
2019-01-02T09:55:01.946Z,3.03
2019-01-02T09:58:10.884Z,3.02
2019-01-02T10:01:19.411Z,3.08
2019-01-02T10:04:27.902Z,3.17
2019-01-02T10:07:36.351Z,3.22
2019-01-02T10:10:43.529Z,3.36
2019-01-02T10:13:50.767Z,3.45
2019-01-02T10:16:59.296Z,3.57
2019-01-02T10:20:06.556Z,3.50
2019-01-02T10:23:15.024Z,3.46
2019-01-02T10:26:22.113Z,3.52
2019-01-02T10:29:29.326Z,3.60
2019-01-02T10:32:37.796Z,3.58
2019-01-02T10:35:44.964Z,3.59
2019-01-02T10:38:53.482Z,3.59
2019-01-02T10:42:01.980Z,3.60
2019-01-02T10:45:10.525Z,3.73
2019-01-02T10:48:17.725Z,3.93
2019-01-02T10:51:24.963Z,4.08
2019-01-02T10:54:32.451Z,4.20
2019-01-02T10:57:39.935Z,4.28
2019-01-02T11:00:47.089Z,4.36
2019-01-02T11:03:55.629Z,4.42
2019-01-02T11:07:04.154Z,4.48
2019-01-02T11:10:12.604Z,4.47
2019-01-02T11:13:20.031Z,4.45
2019-01-02T11:16:28.472Z,4.38
2019-01-02T11:19:35.689Z,4.29
2019-01-02T11:22:44.288Z,4.21
2019-01-02T11:25:51.568Z,4.17
2019-01-02T11:29:00.162Z,4.06
2019-01-02T11:32:07.269Z,4.08
2019-01-02T11:35:15.794Z,4.04
2019-01-02T11:38:24.280Z,4.05
2019-01-02T11:41:32.789Z,4.02
2019-01-02T11:44:40.004Z,4.07
2019-01-02T11:47:08.680Z,3.99
2019-01-02T11:49:37.335Z,4.00
2019-01-02T11:52:05.913Z,4.12
2019-01-02T11:54:34.512Z,4.13
2019-01-02T11:57:03.076Z,4.11
2019-01-02T11:59:31.732Z,4.21
2019-01-02T12:02:19.692Z,4.37
2019-01-02T12:04:48.192Z,4.40
2019-01-02T12:07:16.800Z,4.25
2019-01-02T12:09:45.294Z,4.10
2019-01-02T12:12:14.128Z,4.06
2019-01-02T12:14:42.775Z,4.00
2019-01-02T12:17:11.246Z,3.94
2019-01-02T12:19:39.824Z,3.97
2019-01-02T12:22:08.215Z,3.97
2019-01-02T12:24:36.643Z,3.94
2019-01-02T12:27:05.097Z,3.92
2019-01-02T12:29:33.591Z,4.07
2019-01-02T12:32:02.359Z,4.06
2019-01-02T12:34:30.875Z,4.11
2019-01-02T12:36:59.448Z,4.15
2019-01-02T12:39:28.083Z,4.12
2019-01-02T12:41:56.728Z,4.15
2019-01-02T12:44:25.419Z,4.13
2019-01-02T12:46:53.945Z,4.08
2019-01-02T12:49:22.567Z,4.02
2019-01-02T12:51:51.186Z,4.02
2019-01-02T12:54:19.856Z,4.00
2019-01-02T12:56:48.425Z,4.03
2019-01-02T12:59:56.909Z,4.05
2019-01-02T13:03:05.413Z,4.07
2019-01-02T13:06:13.959Z,4.18
2019-01-02T13:09:21.143Z,4.22
2019-01-02T13:12:28.458Z,4.42
2019-01-02T13:15:36.959Z,4.47
2019-01-02T13:18:44.159Z,4.55
2019-01-02T13:21:52.926Z,4.57
2019-01-02T13:25:00.199Z,4.65
2019-01-02T13:28:08.686Z,4.52
2019-01-02T13:31:17.142Z,4.41
2019-01-02T13:34:24.346Z,4.46
2019-01-02T13:37:33.154Z,4.51
2019-01-02T13:40:40.319Z,4.51
2019-01-02T13:43:48.866Z,4.55
2019-01-02T13:46:56.077Z,4.49
2019-01-02T13:50:03.302Z,4.45
2019-01-02T13:52:31.780Z,4.34
2019-01-02T13:55:40.228Z,4.39
2019-01-02T13:58:08.844Z,4.31
2019-01-02T14:00:37.360Z,4.30
2019-01-02T14:03:05.813Z,4.21
2019-01-02T14:06:14.339Z,4.18
2019-01-02T14:08:42.949Z,4.19
2019-01-02T14:11:11.498Z,4.11
2019-01-02T14:13:40.071Z,4.11
2019-01-02T14:16:08.568Z,4.14
2019-01-02T14:18:37.054Z,4.13
2019-01-02T14:21:05.633Z,4.12
2019-01-02T14:23:34.190Z,4.11
2019-01-02T14:26:02.733Z,4.14
2019-01-02T14:28:31.212Z,4.07
2019-01-02T14:30:59.714Z,4.04
2019-01-02T14:33:28.269Z,4.08
2019-01-02T14:35:56.715Z,4.02
2019-01-02T14:38:25.235Z,3.98
2019-01-02T14:40:53.791Z,3.99
2019-01-02T14:43:22.354Z,4.03
2019-01-02T14:45:50.948Z,3.99
2019-01-02T14:48:19.504Z,3.94
2019-01-02T14:50:48.054Z,3.74
2019-01-02T14:53:16.509Z,3.62
2019-01-02T14:55:45.671Z,3.52
2019-01-02T14:58:14.530Z,3.47
2019-01-02T15:00:43.107Z,3.46
2019-01-02T15:03:11.650Z,3.47
2019-01-02T15:05:40.580Z,3.42
2019-01-02T15:08:09.111Z,3.44
2019-01-02T15:10:37.632Z,3.37
2019-01-02T15:13:06.234Z,3.33
2019-01-02T15:15:34.762Z,3.36
2019-01-02T15:18:03.438Z,3.34
2019-01-02T15:20:31.985Z,3.37
2019-01-02T15:23:00.584Z,3.33
2019-01-02T15:25:29.466Z,3.30
2019-01-02T15:27:58.111Z,3.29
2019-01-02T15:30:26.548Z,3.38
2019-01-02T15:32:55.136Z,3.40
2019-01-02T15:35:23.706Z,3.30
2019-01-02T15:37:52.317Z,3.26
2019-01-02T15:40:21.170Z,3.22
2019-01-02T15:42:49.914Z,3.18
2019-01-02T15:45:18.465Z,3.17
2019-01-02T15:47:46.946Z,3.13
2019-01-02T15:50:15.490Z,3.09
2019-01-02T15:52:44.094Z,3.07
2019-01-02T15:55:12.662Z,3.09
2019-01-02T15:57:41.255Z,3.11
2019-01-02T16:00:49.755Z,3.07
2019-01-02T16:03:18.425Z,3.10
2019-01-02T16:05:47.064Z,3.08
2019-01-02T16:08:15.532Z,3.13
2019-01-02T16:10:44.554Z,3.19
2019-01-02T16:13:13.069Z,3.15
2019-01-02T16:15:41.580Z,3.18
2019-01-02T16:18:10.039Z,3.17
2019-01-02T16:20:38.500Z,3.24
2019-01-02T16:23:06.999Z,3.22
2019-01-02T16:25:35.850Z,3.27
2019-01-02T16:28:04.476Z,3.25
2019-01-02T16:30:33.019Z,3.29
2019-01-02T16:33:01.898Z,3.29
2019-01-02T16:35:30.470Z,3.26
2019-01-02T16:37:59.392Z,3.29
2019-01-02T16:40:28.032Z,3.19
2019-01-02T16:42:56.648Z,3.15
2019-01-02T16:45:25.398Z,3.02
2019-01-02T16:47:54.011Z,2.92
2019-01-02T16:50:22.715Z,2.86
2019-01-02T16:52:51.209Z,2.80
2019-01-02T16:55:19.861Z,2.74
2019-01-02T16:57:48.528Z,2.72
2019-01-02T17:00:17.242Z,2.69
2019-01-02T17:02:45.842Z,2.66
2019-01-02T17:05:15.140Z,2.65
2019-01-02T17:07:43.678Z,2.64
2019-01-02T17:10:52.305Z,2.57
2019-01-02T17:13:21.211Z,2.54
2019-01-02T17:15:49.757Z,2.61
2019-01-02T17:18:18.538Z,2.59
2019-01-02T17:20:47.265Z,2.56
2019-01-02T17:23:16.150Z,2.57
2019-01-02T17:25:44.726Z,2.58
2019-01-02T17:28:13.597Z,2.52
2019-01-02T17:30:42.250Z,2.53
2019-01-02T17:33:10.856Z,2.47
2019-01-02T17:35:39.462Z,2.44
2019-01-02T17:38:08.029Z,2.45
2019-01-02T17:40:36.504Z,2.42
2019-01-02T17:43:05.120Z,2.38
2019-01-02T17:45:33.761Z,2.40
2019-01-02T17:48:02.314Z,2.39
2019-01-02T17:50:30.970Z,2.33
2019-01-02T17:52:59.564Z,2.39
2019-01-02T17:55:28.363Z,2.36
2019-01-02T17:57:57.058Z,2.31
2019-01-02T18:00:25.600Z,2.37
2019-01-02T18:02:54.377Z,2.37
2019-01-02T18:05:23.010Z,2.26
2019-01-02T18:07:51.913Z,2.24
2019-01-02T18:10:20.438Z,2.23
2019-01-02T18:12:48.976Z,2.20
2019-01-02T18:15:17.793Z,2.18
2019-01-02T18:17:46.365Z,2.16
2019-01-02T18:20:15.053Z,2.16
2019-01-02T18:22:43.631Z,2.14
2019-01-02T18:25:12.211Z,2.14
2019-01-02T18:27:40.816Z,2.11
2019-01-02T18:30:49.284Z,2.13
2019-01-02T18:33:17.837Z,2.10
2019-01-02T18:35:46.489Z,2.11
2019-01-02T18:38:15.155Z,2.07
2019-01-02T18:40:43.700Z,2.09
2019-01-02T18:43:12.265Z,2.01
2019-01-02T18:45:40.815Z,2.01
2019-01-02T18:48:09.362Z,2.01
2019-01-02T18:50:37.825Z,2.02
2019-01-02T18:53:06.361Z,2.00
2019-01-02T18:55:34.898Z,1.98
2019-01-02T18:58:03.837Z,2.01
2019-01-02T19:00:32.423Z,1.94
2019-01-02T19:03:00.982Z,1.92
2019-01-02T19:05:29.483Z,1.94
2019-01-02T19:07:58.037Z,1.94
2019-01-02T19:10:26.669Z,1.92
2019-01-02T19:13:07.429Z,1.92
2019-01-02T19:15:25.390Z,1.93
2019-01-02T19:17:54.224Z,1.93
2019-01-02T19:20:22.704Z,1.89
2019-01-02T19:22:51.292Z,1.89
2019-01-02T19:25:19.852Z,1.88
2019-01-02T19:27:48.475Z,1.86
2019-01-02T19:30:16.939Z,1.92
2019-01-02T19:32:45.437Z,1.82
2019-01-02T19:35:13.959Z,1.80
2019-01-02T19:37:43.322Z,1.80
2019-01-02T19:40:11.930Z,1.80
2019-01-02T19:42:40.545Z,1.77
2019-01-02T19:45:49.106Z,1.73
2019-01-02T19:48:17.717Z,1.71
2019-01-02T19:50:46.189Z,1.71
2019-01-02T19:53:21.490Z,1.66
2019-01-02T19:55:50.111Z,1.63
2019-01-02T19:58:18.612Z,1.62
2019-01-02T20:00:47.131Z,1.55
2019-01-02T20:03:15.696Z,1.52
2019-01-02T20:05:44.287Z,1.52
2019-01-02T20:08:12.738Z,1.51
2019-01-02T20:10:41.197Z,1.48
2019-01-02T20:13:09.699Z,1.43
2019-01-02T20:15:38.207Z,1.40
2019-01-02T20:18:06.759Z,1.38
2019-01-02T20:20:35.302Z,1.38
2019-01-02T20:23:03.869Z,1.36
2019-01-02T20:25:32.459Z,1.36
2019-01-02T20:28:00.955Z,1.33
2019-01-02T20:30:29.543Z,1.33
2019-01-02T20:32:58.177Z,1.31
2019-01-02T20:35:26.730Z,1.30
2019-01-02T20:37:55.295Z,1.25
2019-01-02T20:40:23.944Z,1.19
2019-01-02T20:42:52.465Z,1.14
2019-01-02T20:45:21.114Z,1.13
2019-01-02T20:47:49.659Z,1.10
2019-01-02T20:50:18.350Z,1.06
2019-01-02T20:52:46.907Z,1.05
2019-01-02T20:55:15.517Z,1.00
2019-01-02T20:57:44.009Z,0.99
2019-01-02T21:00:12.990Z,0.99
2019-01-02T21:03:01.211Z,0.96
2019-01-02T21:05:29.751Z,0.97
2019-01-02T21:07:58.381Z,0.97
2019-01-02T21:10:26.985Z,0.95
2019-01-02T21:12:55.535Z,0.94
2019-01-02T21:15:24.114Z,0.90
2019-01-02T21:17:52.732Z,0.89
2019-01-02T21:20:21.218Z,0.88
2019-01-02T21:22:50.024Z,0.86
2019-01-02T21:25:18.598Z,0.82
2019-01-02T21:27:47.198Z,0.80
2019-01-02T21:30:15.786Z,0.76
2019-01-02T21:32:44.287Z,0.76
2019-01-02T21:35:12.831Z,0.73
2019-01-02T21:37:41.587Z,0.75
2019-01-02T21:40:10.123Z,0.73
2019-01-02T21:42:38.646Z,0.75
2019-01-02T21:45:07.296Z,0.75
2019-01-02T21:47:35.850Z,0.72
2019-01-02T21:50:44.326Z,0.75
2019-01-02T21:53:12.819Z,0.72
2019-01-02T21:55:41.398Z,0.73
2019-01-02T21:58:09.961Z,0.75
2019-01-02T22:00:38.617Z,0.73
2019-01-02T22:03:07.202Z,0.75
2019-01-02T22:05:35.741Z,0.74
2019-01-02T22:08:04.320Z,0.73
2019-01-02T22:10:33.008Z,0.76
2019-01-02T22:13:01.525Z,0.74
2019-01-02T22:15:30.143Z,0.74
2019-01-02T22:17:58.746Z,0.73
2019-01-02T22:20:27.293Z,0.75
2019-01-02T22:22:55.885Z,0.75
2019-01-02T22:25:24.420Z,0.76
2019-01-02T22:27:52.956Z,0.74
2019-01-02T22:30:21.561Z,0.73
2019-01-02T22:32:50.092Z,0.71
2019-01-02T22:35:18.616Z,0.72
2019-01-02T22:37:47.209Z,0.68
2019-01-02T22:40:15.691Z,0.69
2019-01-02T22:42:44.220Z,0.68
2019-01-02T22:45:12.782Z,0.68
2019-01-02T22:47:41.318Z,0.64
2019-01-02T22:50:10.215Z,0.60
2019-01-02T22:52:38.743Z,0.60
2019-01-02T22:55:07.318Z,0.58
2019-01-02T22:57:35.779Z,0.59
2019-01-02T23:00:44.262Z,0.57
2019-01-02T23:06:21.279Z,0.57
2019-01-02T23:14:33.367Z,0.52
2019-01-02T23:17:20.960Z,0.54
2019-01-02T23:20:08.630Z,0.49
2019-01-02T23:25:45.664Z,0.36
2019-01-02T23:28:33.248Z,0.34
2019-01-02T23:31:20.909Z,0.38
2019-01-02T23:36:57.667Z,0.40
2019-01-02T23:39:45.272Z,0.40
2019-01-02T23:42:32.941Z,0.40
2019-01-02T23:50:45.221Z,0.30
2019-01-02T23:53:32.829Z,0.32
2019-01-02T23:56:20.408Z,0.33
2019-01-02T23:59:08.097Z,0.30
